createdAt,value
2023-02-07T00:01:46.499Z,46.47
2023-02-07T00:04:15.506Z,48.63
2023-02-07T00:06:44.542Z,48.22
2023-02-07T00:09:18.572Z,47.28
2023-02-07T00:11:47.628Z,47.83
2023-02-07T00:14:16.783Z,49.17
2023-02-07T00:16:45.837Z,48.65
2023-02-07T00:19:14.953Z,49.88
2023-02-07T00:21:43.932Z,49.13
2023-02-07T00:24:13.281Z,52.95
2023-02-07T00:26:42.301Z,50.92
2023-02-07T00:29:12.578Z,53.58
2023-02-07T00:31:41.951Z,54.00
2023-02-07T00:34:12.268Z,52.85
2023-02-07T00:36:42.322Z,54.38
2023-02-07T00:39:15.813Z,57.92
2023-02-07T00:41:46.039Z,52.78
2023-02-07T00:44:15.086Z,54.97
2023-02-07T00:46:44.066Z,53.50
2023-02-07T00:49:13.650Z,53.22
2023-02-07T00:51:42.927Z,48.50
2023-02-07T00:54:11.920Z,49.75
2023-02-07T00:56:40.950Z,45.03
2023-02-07T00:59:10.521Z,47.35
2023-02-07T01:01:39.694Z,46.67
2023-02-07T01:04:08.766Z,48.80
2023-02-07T01:06:38.251Z,50.58
2023-02-07T01:09:08.063Z,51.97
2023-02-07T01:11:37.156Z,52.42
2023-02-07T01:14:06.244Z,51.20
2023-02-07T01:16:37.369Z,51.03
2023-02-07T01:19:09.754Z,50.60
2023-02-07T01:21:39.291Z,52.28
2023-02-07T01:24:09.847Z,51.75
2023-02-07T01:26:39.767Z,51.10
2023-02-07T01:29:09.212Z,53.22
2023-02-07T01:31:38.197Z,53.25
2023-02-07T01:34:07.173Z,53.70
2023-02-07T01:36:36.173Z,52.30
2023-02-07T01:39:06.087Z,50.47
2023-02-07T01:41:35.044Z,48.70
2023-02-07T01:44:10.519Z,53.80
2023-02-07T01:46:39.411Z,54.40
2023-02-07T01:49:12.835Z,49.50
2023-02-07T01:51:54.745Z,50.40
2023-02-07T01:54:27.294Z,50.20
2023-02-07T01:57:00.889Z,49.33
2023-02-07T01:59:30.788Z,43.83
2023-02-07T02:02:03.587Z,48.00
2023-02-07T02:04:32.599Z,45.80
2023-02-07T02:07:01.629Z,45.60
2023-02-07T02:09:31.055Z,45.28
2023-02-07T02:12:11.714Z,45.33
2023-02-07T02:15:11.111Z,43.25
2023-02-07T02:17:57.733Z,43.42
2023-02-07T02:20:45.521Z,46.85
2023-02-07T02:23:41.089Z,47.05
2023-02-07T02:26:43.924Z,42.20
2023-02-07T02:29:56.816Z,42.35
2023-02-07T02:32:59.359Z,45.08
2023-02-07T02:36:12.159Z,43.00
2023-02-07T02:39:09.697Z,40.78
2023-02-07T02:41:55.330Z,43.55
2023-02-07T02:44:48.686Z,39.35
2023-02-07T02:47:19.759Z,44.15
2023-02-07T02:49:49.980Z,42.20
2023-02-07T02:52:18.846Z,43.28
2023-02-07T02:54:47.839Z,36.65
2023-02-07T02:57:19.632Z,32.78
2023-02-07T02:59:57.571Z,38.75
2023-02-07T03:02:32.565Z,38.50
2023-02-07T03:05:19.015Z,38.95
2023-02-07T03:07:50.911Z,39.33
2023-02-07T03:10:35.157Z,38.70
2023-02-07T03:13:26.390Z,40.22
2023-02-07T03:16:04.606Z,37.45
2023-02-07T03:18:39.510Z,36.50
2023-02-07T03:21:17.092Z,37.38
2023-02-07T03:23:48.319Z,38.30
2023-02-07T03:26:17.909Z,36.65
2023-02-07T03:28:49.522Z,36.63
2023-02-07T03:31:22.318Z,35.78
2023-02-07T03:33:56.093Z,36.67
2023-02-07T03:36:58.659Z,36.78
2023-02-07T03:39:28.255Z,36.13
2023-02-07T03:42:05.381Z,40.80
2023-02-07T03:44:36.235Z,34.70
2023-02-07T03:47:06.375Z,34.72
2023-02-07T03:49:35.403Z,34.05
2023-02-07T03:52:04.575Z,33.60
2023-02-07T03:54:33.531Z,34.75
2023-02-07T03:57:02.407Z,33.65
2023-02-07T03:59:31.353Z,32.20
2023-02-07T04:02:00.244Z,36.47
2023-02-07T04:04:29.541Z,32.80
2023-02-07T04:06:58.681Z,38.30
2023-02-07T04:09:27.742Z,32.33
2023-02-07T04:11:56.686Z,32.17
2023-02-07T04:14:25.669Z,32.13
2023-02-07T04:16:54.613Z,30.90
2023-02-07T04:19:23.771Z,31.10
2023-02-07T04:21:52.853Z,29.23
2023-02-07T04:24:21.855Z,36.28
2023-02-07T04:26:50.806Z,36.80
2023-02-07T04:29:19.786Z,36.78
2023-02-07T04:31:49.004Z,28.75
2023-02-07T04:34:18.108Z,27.48
2023-02-07T04:36:47.104Z,28.35
2023-02-07T04:39:16.114Z,26.33
2023-02-07T04:41:45.188Z,25.55
2023-02-07T04:44:14.178Z,26.52
2023-02-07T04:46:43.277Z,25.42
2023-02-07T04:49:12.351Z,24.98
2023-02-07T04:51:41.291Z,27.80
2023-02-07T04:54:11.366Z,24.40
2023-02-07T04:56:40.572Z,25.10
2023-02-07T04:59:09.543Z,26.33
2023-02-07T05:01:38.531Z,26.85
2023-02-07T05:04:07.498Z,26.35
2023-02-07T05:06:36.804Z,25.15
2023-02-07T05:09:05.803Z,26.98
2023-02-07T05:11:34.992Z,25.10
2023-02-07T05:14:03.949Z,23.63
2023-02-07T05:16:32.878Z,28.35
2023-02-07T05:19:01.818Z,29.23
2023-02-07T05:21:30.758Z,29.48
2023-02-07T05:23:59.612Z,28.73
2023-02-07T05:26:28.475Z,28.55
2023-02-07T05:28:57.336Z,28.83
2023-02-07T05:31:46.167Z,29.05
2023-02-07T05:34:15.207Z,28.50
2023-02-07T05:36:44.148Z,25.58
2023-02-07T05:39:13.192Z,26.20
2023-02-07T05:41:42.121Z,21.65
2023-02-07T05:44:11.188Z,22.55
2023-02-07T05:46:40.231Z,22.42
2023-02-07T05:49:09.173Z,22.70
2023-02-07T05:51:38.089Z,25.67
2023-02-07T05:54:07.024Z,20.65
2023-02-07T05:56:36.211Z,15.60
2023-02-07T05:59:05.136Z,15.50
2023-02-07T06:01:35.912Z,16.52
2023-02-07T06:04:06.040Z,18.25
2023-02-07T06:06:35.131Z,17.85
2023-02-07T06:09:03.998Z,17.38
2023-02-07T06:11:32.851Z,17.45
2023-02-07T06:14:01.803Z,18.08
2023-02-07T06:16:30.771Z,17.80
2023-02-07T06:18:59.743Z,17.08
2023-02-07T06:21:45.131Z,17.63
2023-02-07T06:24:15.646Z,16.52
2023-02-07T06:26:45.567Z,16.98
2023-02-07T06:29:14.703Z,16.38
2023-02-07T06:31:43.793Z,16.17
2023-02-07T06:34:12.831Z,16.52
2023-02-07T06:36:41.745Z,14.98
2023-02-07T06:39:10.900Z,14.80
2023-02-07T06:41:39.936Z,14.90
2023-02-07T06:44:09.017Z,15.60
2023-02-07T06:46:38.020Z,15.00
2023-02-07T06:49:07.251Z,13.88
2023-02-07T06:51:36.247Z,14.65
2023-02-07T06:54:09.403Z,14.32
2023-02-07T06:56:39.236Z,13.07
2023-02-07T06:59:08.239Z,12.75
2023-02-07T07:01:37.182Z,13.35
2023-02-07T07:04:06.281Z,12.75
2023-02-07T07:06:35.584Z,12.75
2023-02-07T07:09:04.767Z,12.55
2023-02-07T07:11:33.788Z,13.10
2023-02-07T07:14:03.801Z,13.85
2023-02-07T07:16:32.736Z,13.07
2023-02-07T07:19:01.712Z,12.70
2023-02-07T07:21:30.825Z,12.65
2023-02-07T07:23:59.827Z,12.52
2023-02-07T07:26:39.516Z,13.88
2023-02-07T07:29:15.970Z,13.82
2023-02-07T07:31:45.159Z,14.93
2023-02-07T07:34:14.423Z,13.80
2023-02-07T07:36:43.847Z,14.30
2023-02-07T07:39:13.002Z,12.95
2023-02-07T07:41:42.066Z,14.30
2023-02-07T07:44:11.103Z,11.93
2023-02-07T07:46:40.172Z,13.82
2023-02-07T07:49:09.435Z,12.68
2023-02-07T07:51:38.575Z,13.18
2023-02-07T07:54:07.505Z,14.32
2023-02-07T07:56:36.600Z,13.73
2023-02-07T07:59:06.040Z,14.90
2023-02-07T08:01:41.165Z,13.68
2023-02-07T08:04:10.140Z,13.50
2023-02-07T08:06:39.105Z,13.48
2023-02-07T08:09:07.992Z,12.85
2023-02-07T08:11:36.899Z,13.82
2023-02-07T08:14:05.885Z,13.23
2023-02-07T08:16:34.887Z,14.00
2023-02-07T08:19:03.904Z,13.23
2023-02-07T08:21:33.683Z,13.63
2023-02-07T08:24:02.604Z,13.98
2023-02-07T08:26:31.910Z,14.15
2023-02-07T08:29:00.841Z,13.20
2023-02-07T08:31:29.849Z,12.75
2023-02-07T08:33:59.001Z,14.52
2023-02-07T08:36:27.922Z,13.98
2023-02-07T08:38:56.923Z,14.48
2023-02-07T08:41:25.910Z,14.02
2023-02-07T08:43:54.847Z,15.68
2023-02-07T08:46:23.814Z,13.20
2023-02-07T08:48:52.776Z,14.40
2023-02-07T08:51:22.604Z,14.75
2023-02-07T08:53:51.528Z,14.40
2023-02-07T08:56:20.440Z,14.05
2023-02-07T08:58:49.417Z,14.32
2023-02-07T09:01:18.304Z,14.13
2023-02-07T09:03:47.265Z,13.45
2023-02-07T09:06:16.216Z,13.48
2023-02-07T09:08:45.276Z,13.38
2023-02-07T09:11:14.203Z,12.77
2023-02-07T09:13:46.376Z,12.77
2023-02-07T09:16:16.617Z,12.23
2023-02-07T09:18:45.624Z,13.07
2023-02-07T09:21:14.582Z,11.95
2023-02-07T09:23:43.483Z,12.02
2023-02-07T09:26:21.624Z,12.25
2023-02-07T09:28:50.734Z,13.07
2023-02-07T09:31:19.986Z,12.82
2023-02-07T09:33:49.114Z,13.20
2023-02-07T09:36:24.002Z,12.65
2023-02-07T09:38:53.568Z,13.10
2023-02-07T09:41:47.213Z,13.40
2023-02-07T09:44:45.867Z,13.63
2023-02-07T09:47:22.428Z,14.57
2023-02-07T09:50:07.577Z,12.77
2023-02-07T09:52:46.455Z,13.07
2023-02-07T09:55:51.987Z,13.38
2023-02-07T09:58:34.815Z,12.57
2023-02-07T10:01:11.727Z,12.53
2023-02-07T10:04:04.537Z,15.50
2023-02-07T10:06:34.462Z,13.88
2023-02-07T10:09:03.770Z,12.80
2023-02-07T10:11:54.464Z,12.65
2023-02-07T10:14:30.632Z,12.82
2023-02-07T10:17:31.622Z,12.57
2023-02-07T10:20:21.430Z,18.42
2023-02-07T10:23:16.620Z,16.83
2023-02-07T10:26:03.954Z,17.95
2023-02-07T10:28:47.884Z,18.25
2023-02-07T10:31:18.651Z,20.42
2023-02-07T10:34:16.209Z,17.95
2023-02-07T10:36:49.146Z,17.70
2023-02-07T10:39:34.793Z,20.38
2023-02-07T10:42:03.642Z,18.20
2023-02-07T10:44:32.898Z,19.17
2023-02-07T10:47:05.382Z,21.83
2023-02-07T10:49:37.424Z,24.42
2023-02-07T10:52:24.800Z,24.15
2023-02-07T10:54:56.816Z,23.83
2023-02-07T10:57:27.292Z,20.80
2023-02-07T11:00:16.375Z,19.15
2023-02-07T11:02:51.109Z,19.15
2023-02-07T11:05:20.001Z,19.45
2023-02-07T11:08:10.095Z,19.27
2023-02-07T11:10:41.930Z,18.95
2023-02-07T11:13:29.767Z,20.25
2023-02-07T11:16:05.924Z,19.20
2023-02-07T11:18:45.309Z,20.73
2023-02-07T11:21:37.048Z,20.38
2023-02-07T11:24:09.364Z,22.13
2023-02-07T11:26:48.903Z,21.48
2023-02-07T11:29:20.565Z,21.45
2023-02-07T11:31:51.181Z,20.63
2023-02-07T11:34:49.410Z,21.17
2023-02-07T11:38:00.185Z,19.52
2023-02-07T11:40:37.573Z,20.83
2023-02-07T11:43:16.842Z,19.73
2023-02-07T11:45:49.500Z,20.30
2023-02-07T11:48:22.341Z,22.05
2023-02-07T11:50:56.181Z,22.63
2023-02-07T11:53:33.616Z,20.42
2023-02-07T11:56:02.745Z,21.10
2023-02-07T11:58:47.684Z,20.83
2023-02-07T12:01:19.827Z,20.88
2023-02-07T12:04:04.619Z,21.30
2023-02-07T12:06:52.975Z,21.48
2023-02-07T12:09:57.328Z,21.33
2023-02-07T12:12:47.574Z,20.45
2023-02-07T12:15:19.659Z,22.35
2023-02-07T12:17:58.378Z,24.63
2023-02-07T12:20:55.120Z,23.52
2023-02-07T12:23:41.963Z,24.48
2023-02-07T12:26:18.941Z,24.60
2023-02-07T12:29:07.509Z,25.15
2023-02-07T12:32:08.317Z,24.43
2023-02-07T12:35:12.748Z,24.63
2023-02-07T12:37:44.743Z,25.02
2023-02-07T12:40:32.118Z,24.17
2023-02-07T12:43:22.515Z,25.02
2023-02-07T12:45:57.719Z,25.08
2023-02-07T12:48:44.723Z,23.50
2023-02-07T12:51:50.676Z,24.67
2023-02-07T12:54:45.976Z,25.65
2023-02-07T12:57:40.142Z,26.88
2023-02-07T13:00:25.576Z,24.90
2023-02-07T13:03:25.162Z,27.45
2023-02-07T13:06:09.643Z,24.83
2023-02-07T13:08:53.970Z,26.35
2023-02-07T13:12:00.030Z,25.95
2023-02-07T13:14:50.610Z,29.85
2023-02-07T13:17:43.810Z,28.20
2023-02-07T13:20:31.078Z,28.98
2023-02-07T13:23:10.898Z,28.40
2023-02-07T13:25:44.740Z,29.02
2023-02-07T13:28:48.082Z,25.70
2023-02-07T13:31:42.313Z,26.23
2023-02-07T13:34:39.186Z,26.13
2023-02-07T13:37:16.978Z,25.10
2023-02-07T13:39:56.523Z,26.85
2023-02-07T13:42:37.268Z,25.02
2023-02-07T13:45:31.550Z,24.90
2023-02-07T13:48:23.787Z,26.15
2023-02-07T13:51:02.025Z,28.65
2023-02-07T13:54:09.064Z,30.35
2023-02-07T13:56:56.413Z,26.50
2023-02-07T13:59:40.034Z,26.00
2023-02-07T14:02:16.284Z,27.63
2023-02-07T14:05:00.406Z,29.05
2023-02-07T14:10:06.964Z,27.25
2023-02-07T14:12:41.955Z,25.45
2023-02-07T14:15:29.709Z,27.63
2023-02-07T14:18:02.480Z,27.17
2023-02-07T14:20:47.737Z,28.40
2023-02-07T14:23:21.486Z,26.08
2023-02-07T14:28:34.322Z,26.48
2023-02-07T14:31:25.223Z,27.88
2023-02-07T14:34:15.715Z,27.73
2023-02-07T14:36:45.146Z,26.35
2023-02-07T14:39:22.221Z,27.25
2023-02-07T14:41:53.298Z,26.75
2023-02-07T14:44:37.811Z,27.98
2023-02-07T14:47:10.314Z,26.30
2023-02-07T14:49:46.167Z,26.92
2023-02-07T14:52:37.513Z,28.27
2023-02-07T14:55:25.605Z,26.58
2023-02-07T14:58:08.514Z,27.83
2023-02-07T15:00:56.265Z,27.50
2023-02-07T15:03:25.342Z,30.40
2023-02-07T15:06:00.499Z,28.00
2023-02-07T15:08:31.892Z,29.33
2023-02-07T15:11:06.019Z,29.73
2023-02-07T15:13:38.925Z,31.35
2023-02-07T15:16:16.172Z,30.75
2023-02-07T15:19:20.536Z,30.73
2023-02-07T15:21:52.943Z,30.85
2023-02-07T15:24:50.715Z,30.85
2023-02-07T15:27:30.043Z,29.85
2023-02-07T15:30:04.445Z,29.00
2023-02-07T15:32:43.822Z,29.58
2023-02-07T15:35:31.064Z,28.17
2023-02-07T15:38:18.212Z,26.60
2023-02-07T15:40:47.480Z,28.17
2023-02-07T15:43:36.935Z,26.77
2023-02-07T15:46:11.920Z,26.48
2023-02-07T15:49:00.993Z,27.00
2023-02-07T15:51:32.545Z,27.17
2023-02-07T15:54:03.600Z,25.35
2023-02-07T15:56:33.034Z,25.38
2023-02-07T15:59:12.079Z,25.88
2023-02-07T16:01:42.369Z,26.95
2023-02-07T16:04:11.604Z,26.13
2023-02-07T16:06:57.374Z,25.45
2023-02-07T16:10:15.782Z,24.10
2023-02-07T16:12:54.154Z,24.60
2023-02-07T16:15:33.398Z,25.08
2023-02-07T16:18:04.852Z,25.55
2023-02-07T16:20:37.981Z,24.92
2023-02-07T16:23:10.910Z,24.92
2023-02-07T16:25:39.862Z,25.45
2023-02-07T16:28:12.651Z,26.00
2023-02-07T16:30:42.553Z,26.67
2023-02-07T16:33:14.840Z,25.45
2023-02-07T16:35:43.891Z,25.58
2023-02-07T16:38:12.995Z,24.90
2023-02-07T16:40:42.377Z,24.55
2023-02-07T16:43:19.137Z,24.25
2023-02-07T16:45:48.101Z,25.13
2023-02-07T16:48:17.095Z,25.88
2023-02-07T16:50:45.957Z,23.73
2023-02-07T16:53:15.367Z,24.48
2023-02-07T16:55:44.283Z,24.30
2023-02-07T16:58:30.444Z,23.20
2023-02-07T17:00:59.639Z,23.88
2023-02-07T17:03:28.677Z,23.30
2023-02-07T17:05:57.822Z,24.58
2023-02-07T17:08:31.312Z,24.65
2023-02-07T17:11:03.297Z,24.70
2023-02-07T17:13:32.353Z,24.23
2023-02-07T17:16:01.416Z,19.80
2023-02-07T17:18:30.423Z,19.42
2023-02-07T17:20:59.435Z,19.08
2023-02-07T17:23:29.693Z,18.73
2023-02-07T17:25:58.914Z,19.58
2023-02-07T17:28:27.965Z,19.08
2023-02-07T17:30:57.812Z,19.00
2023-02-07T17:33:27.735Z,18.55
2023-02-07T17:35:56.750Z,17.88
2023-02-07T17:38:25.697Z,18.20
2023-02-07T17:40:54.807Z,17.80
2023-02-07T17:43:23.944Z,17.98
2023-02-07T17:45:53.011Z,18.58
2023-02-07T17:48:22.044Z,18.73
2023-02-07T17:50:51.013Z,19.45
2023-02-07T17:53:22.650Z,17.58
2023-02-07T17:55:52.297Z,17.50
2023-02-07T17:58:21.356Z,15.02
2023-02-07T18:00:50.480Z,15.60
2023-02-07T18:03:19.653Z,17.10
2023-02-07T18:05:48.650Z,15.13
2023-02-07T18:08:17.694Z,13.68
2023-02-07T18:10:46.564Z,13.50
2023-02-07T18:13:15.455Z,13.98
2023-02-07T18:15:45.760Z,14.05
2023-02-07T18:18:16.447Z,14.55
2023-02-07T18:20:45.840Z,14.65
2023-02-07T18:23:16.156Z,13.35
2023-02-07T18:25:50.024Z,13.35
2023-02-07T18:30:47.719Z,14.30
2023-02-07T18:33:18.216Z,13.88
2023-02-07T18:35:47.921Z,14.43
2023-02-07T18:38:16.816Z,14.90
2023-02-07T18:40:45.724Z,14.35
2023-02-07T18:43:14.705Z,14.45
2023-02-07T18:45:43.679Z,14.00
2023-02-07T18:48:12.685Z,16.15
2023-02-07T18:50:47.429Z,14.68
2023-02-07T18:53:16.459Z,14.07
2023-02-07T18:55:45.371Z,14.25
2023-02-07T18:58:14.264Z,15.05
2023-02-07T19:00:44.431Z,13.35
2023-02-07T19:03:13.327Z,14.02
2023-02-07T19:05:42.336Z,14.32
2023-02-07T19:08:11.406Z,13.20
2023-02-07T19:10:40.536Z,14.02
2023-02-07T19:13:09.553Z,14.50
2023-02-07T19:15:38.495Z,14.15
2023-02-07T19:18:07.529Z,14.32
2023-02-07T19:20:36.460Z,13.88
2023-02-07T19:23:06.374Z,14.43
2023-02-07T19:25:35.990Z,14.43
2023-02-07T19:28:04.975Z,14.65
2023-02-07T19:30:33.963Z,14.73
2023-02-07T19:33:03.214Z,13.85
2023-02-07T19:35:32.093Z,14.13
2023-02-07T19:38:01.044Z,13.52
2023-02-07T19:40:29.964Z,13.98
2023-02-07T19:42:58.922Z,12.88
2023-02-07T19:45:28.064Z,13.48
2023-02-07T19:47:57.042Z,14.63
2023-02-07T19:50:27.335Z,12.95
2023-02-07T19:52:56.424Z,12.93
2023-02-07T19:55:25.314Z,12.75
2023-02-07T19:57:55.633Z,12.07
2023-02-07T20:00:24.589Z,12.30
2023-02-07T20:02:53.490Z,12.48
2023-02-07T20:05:22.412Z,12.43
2023-02-07T20:07:51.366Z,12.52
2023-02-07T20:10:20.809Z,12.68
2023-02-07T20:12:50.092Z,13.40
2023-02-07T20:15:19.211Z,12.25
2023-02-07T20:17:49.473Z,13.00
2023-02-07T20:20:19.107Z,12.32
2023-02-07T20:22:48.047Z,11.50
2023-02-07T20:25:17.392Z,11.88
2023-02-07T20:27:46.362Z,11.52
2023-02-07T20:30:15.666Z,10.77
2023-02-07T20:32:45.479Z,11.88
2023-02-07T20:35:15.868Z,10.95
2023-02-07T20:37:44.842Z,11.60
2023-02-07T20:40:13.907Z,11.88
2023-02-07T20:42:42.864Z,10.88
2023-02-07T20:45:12.811Z,10.55
2023-02-07T20:47:41.830Z,10.93
2023-02-07T20:50:11.027Z,11.00
2023-02-07T20:52:39.994Z,11.43
2023-02-07T20:55:10.068Z,10.73
2023-02-07T20:57:39.014Z,11.35
2023-02-07T21:00:09.719Z,11.63
2023-02-07T21:02:39.286Z,11.10
2023-02-07T21:05:08.773Z,10.35
2023-02-07T21:07:37.848Z,11.27
2023-02-07T21:10:07.267Z,11.43
2023-02-07T21:12:36.154Z,11.70
2023-02-07T21:15:05.127Z,11.35
2023-02-07T21:17:33.998Z,10.40
2023-02-07T21:20:02.897Z,11.50
2023-02-07T21:22:31.793Z,11.45
2023-02-07T21:25:00.731Z,11.68
2023-02-07T21:27:29.720Z,11.38
2023-02-07T21:29:58.576Z,11.15
2023-02-07T21:32:27.475Z,11.05
2023-02-07T21:34:56.369Z,10.75
2023-02-07T21:37:25.709Z,11.15
2023-02-07T21:39:55.177Z,11.10
2023-02-07T21:42:24.051Z,11.07
2023-02-07T21:44:52.983Z,12.02
2023-02-07T21:47:21.895Z,12.90
2023-02-07T21:49:50.944Z,12.10
2023-02-07T21:52:19.875Z,11.20
2023-02-07T21:54:48.780Z,11.90
2023-02-07T21:57:17.738Z,11.70
2023-02-07T21:59:47.807Z,12.43
2023-02-07T22:02:16.688Z,20.15
2023-02-07T22:04:45.682Z,12.32
2023-02-07T22:07:14.678Z,12.60
2023-02-07T22:09:43.635Z,11.45
2023-02-07T22:12:12.525Z,14.23
2023-02-07T22:14:41.475Z,12.85
2023-02-07T22:17:11.318Z,12.07
2023-02-07T22:19:40.201Z,12.60
2023-02-07T22:22:09.281Z,12.23
2023-02-07T22:24:38.516Z,11.85
2023-02-07T22:27:07.781Z,11.60
2023-02-07T22:29:36.638Z,13.73
2023-02-07T22:32:05.695Z,12.45
2023-02-07T22:34:35.271Z,12.48
2023-02-07T22:37:04.257Z,13.60
2023-02-07T22:39:33.209Z,14.32
2023-02-07T22:42:02.127Z,12.82
2023-02-07T22:44:31.434Z,19.45
2023-02-07T22:47:00.409Z,19.95
2023-02-07T22:49:29.397Z,21.55
2023-02-07T22:51:58.382Z,20.33
2023-02-07T22:54:27.442Z,22.27
2023-02-07T22:56:56.421Z,24.05
2023-02-07T22:59:25.480Z,23.67
2023-02-07T23:01:54.477Z,23.20
2023-02-07T23:04:23.630Z,20.80
2023-02-07T23:06:53.617Z,23.33
2023-02-07T23:09:22.660Z,29.60
2023-02-07T23:11:51.700Z,22.92
2023-02-07T23:14:21.937Z,23.55
2023-02-07T23:16:51.333Z,25.95
2023-02-07T23:19:20.446Z,24.17
2023-02-07T23:21:49.541Z,22.20
2023-02-07T23:24:18.468Z,18.17
2023-02-07T23:26:47.392Z,21.15
2023-02-07T23:29:16.437Z,20.50
2023-02-07T23:31:45.443Z,20.48
2023-02-07T23:34:14.513Z,19.98
2023-02-07T23:36:43.631Z,20.15
2023-02-07T23:39:13.254Z,23.52
2023-02-07T23:41:42.406Z,22.38
2023-02-07T23:44:11.340Z,23.02
2023-02-07T23:46:40.934Z,23.70
2023-02-07T23:49:09.913Z,24.92
2023-02-07T23:51:38.887Z,23.33
2023-02-07T23:54:07.812Z,21.83
2023-02-07T23:56:36.729Z,22.08
2023-02-07T23:59:05.697Z,22.83
